createdAt,value
2019-03-27T00:00:28.322Z,4.50
2019-03-27T00:02:58.955Z,4.10
2019-03-27T00:05:33.255Z,4.23
2019-03-27T00:08:04.052Z,3.77
2019-03-27T00:10:37.407Z,4.00
2019-03-27T00:13:08.344Z,4.63
2019-03-27T00:15:39.244Z,4.33
2019-03-27T00:18:13.349Z,4.00
2019-03-27T00:20:44.591Z,3.50
2019-03-27T00:23:15.559Z,2.83
2019-03-27T00:25:46.066Z,3.23
2019-03-27T00:28:16.700Z,3.00
2019-03-27T00:30:47.544Z,3.30
2019-03-27T00:33:18.490Z,2.73
2019-03-27T00:35:53.032Z,3.40
2019-03-27T00:38:22.841Z,2.77
2019-03-27T00:40:55.281Z,2.67
2019-03-27T00:43:25.848Z,2.37
2019-03-27T00:45:56.894Z,2.03
2019-03-27T00:48:32.500Z,2.27
2019-03-27T00:51:04.376Z,2.50
2019-03-27T00:53:35.203Z,2.10
2019-03-27T00:56:07.421Z,2.13
2019-03-27T00:58:40.116Z,2.37
2019-03-27T01:01:15.173Z,2.73
2019-03-27T01:03:45.877Z,2.23
2019-03-27T01:06:16.623Z,3.00
2019-03-27T01:08:47.583Z,2.20
2019-03-27T01:11:19.011Z,3.63
2019-03-27T01:13:50.242Z,3.07
2019-03-27T01:16:24.805Z,2.93
2019-03-27T01:19:00.133Z,3.10
2019-03-27T01:21:31.860Z,3.30
2019-03-27T01:24:02.824Z,2.73
2019-03-27T01:26:33.684Z,3.63
2019-03-27T01:29:04.319Z,2.80
2019-03-27T01:31:34.847Z,3.53
2019-03-27T01:34:05.534Z,3.90
2019-03-27T01:36:36.968Z,3.43
2019-03-27T01:39:08.962Z,3.30
2019-03-27T01:41:39.933Z,2.87
2019-03-27T01:44:10.573Z,3.47
2019-03-27T01:46:41.126Z,3.60
2019-03-27T01:49:11.793Z,3.43
2019-03-27T01:51:42.359Z,4.00
2019-03-27T01:54:14.039Z,4.10
2019-03-27T01:56:44.955Z,4.40
2019-03-27T01:59:15.415Z,4.10
2019-03-27T02:01:48.317Z,3.30
2019-03-27T02:04:18.931Z,4.60
2019-03-27T02:06:52.673Z,4.67
2019-03-27T02:09:23.291Z,3.73
2019-03-27T02:11:53.809Z,4.43
2019-03-27T02:14:24.697Z,4.80
2019-03-27T02:16:55.665Z,4.50
2019-03-27T02:19:26.672Z,4.23
2019-03-27T02:21:57.767Z,4.43
2019-03-27T02:24:30.084Z,4.33
2019-03-27T02:27:03.001Z,4.50
2019-03-27T02:29:33.571Z,4.50
2019-03-27T02:32:07.487Z,4.43
2019-03-27T02:34:38.484Z,4.33
2019-03-27T02:37:09.998Z,5.47
2019-03-27T02:39:40.586Z,5.00
2019-03-27T02:42:11.402Z,5.30
2019-03-27T02:44:42.392Z,5.53
2019-03-27T02:47:16.466Z,5.33
2019-03-27T02:49:50.255Z,5.10
2019-03-27T02:52:21.205Z,5.33
2019-03-27T02:54:51.747Z,5.50
2019-03-27T02:57:22.364Z,5.63
2019-03-27T02:59:53.342Z,5.37
2019-03-27T03:02:24.015Z,5.77
2019-03-27T03:04:56.417Z,5.77
2019-03-27T03:07:30.393Z,5.23
2019-03-27T03:10:01.445Z,5.60
2019-03-27T03:12:33.315Z,5.37
2019-03-27T03:15:04.789Z,5.90
2019-03-27T03:17:37.945Z,6.47
2019-03-27T03:20:10.147Z,5.20
2019-03-27T03:22:40.780Z,4.93
2019-03-27T03:25:11.627Z,6.77
2019-03-27T03:27:42.190Z,5.67
2019-03-27T03:30:18.113Z,6.60
2019-03-27T03:32:48.688Z,5.30
2019-03-27T03:35:23.094Z,6.00
2019-03-27T03:37:57.747Z,6.27
2019-03-27T03:40:28.415Z,5.33
2019-03-27T03:43:04.349Z,5.40
2019-03-27T03:45:35.106Z,5.83
2019-03-27T03:48:09.759Z,6.43
2019-03-27T03:50:43.327Z,6.40
2019-03-27T03:53:14.942Z,5.73
2019-03-27T03:55:48.822Z,5.37
2019-03-27T03:58:22.313Z,6.07
2019-03-27T04:00:53.873Z,5.20
2019-03-27T04:03:28.126Z,5.73
2019-03-27T04:05:58.697Z,4.67
2019-03-27T04:08:29.156Z,5.00
2019-03-27T04:11:00.188Z,4.90
2019-03-27T04:13:30.817Z,4.63
2019-03-27T04:16:01.819Z,4.63
2019-03-27T04:18:44.748Z,4.40
2019-03-27T04:21:15.233Z,4.70
2019-03-27T04:23:45.738Z,3.90
2019-03-27T04:26:19.071Z,4.03
2019-03-27T04:28:49.482Z,3.93
2019-03-27T04:31:20.383Z,4.00
2019-03-27T04:33:53.158Z,3.80
2019-03-27T04:36:26.041Z,3.77
2019-03-27T04:38:57.656Z,3.50
2019-03-27T04:41:28.579Z,2.90
2019-03-27T04:44:00.363Z,3.80
2019-03-27T04:46:30.955Z,3.80
2019-03-27T04:49:01.475Z,3.43
2019-03-27T04:51:32.535Z,2.87
2019-03-27T04:54:03.428Z,3.67
2019-03-27T04:56:36.735Z,3.53
2019-03-27T04:59:08.556Z,3.63
2019-03-27T05:01:39.646Z,3.07
2019-03-27T05:04:10.876Z,3.63
2019-03-27T05:06:48.230Z,3.27
2019-03-27T05:09:18.679Z,3.00
2019-03-27T05:11:49.747Z,3.73
2019-03-27T05:14:23.403Z,3.53
2019-03-27T05:16:54.410Z,4.33
2019-03-27T05:19:25.076Z,4.20
2019-03-27T05:21:59.322Z,3.33
2019-03-27T05:24:29.846Z,4.17
2019-03-27T05:27:00.505Z,3.93
2019-03-27T05:29:31.375Z,4.50
2019-03-27T05:32:01.860Z,4.30
2019-03-27T05:34:32.416Z,3.97
2019-03-27T05:37:02.977Z,3.67
2019-03-27T05:39:34.340Z,3.87
2019-03-27T05:42:05.757Z,4.13
2019-03-27T05:44:36.375Z,3.73
2019-03-27T05:47:07.358Z,3.73
2019-03-27T05:49:37.951Z,4.20
2019-03-27T05:52:08.499Z,3.80
2019-03-27T05:54:39.052Z,3.67
2019-03-27T05:57:12.041Z,3.60
2019-03-27T05:59:43.194Z,3.30
2019-03-27T06:02:17.626Z,3.60
2019-03-27T06:04:49.044Z,3.60
2019-03-27T06:07:19.568Z,3.43
2019-03-27T06:09:50.181Z,3.30
2019-03-27T06:12:21.241Z,4.20
2019-03-27T06:14:51.865Z,3.23
2019-03-27T06:17:23.942Z,4.00
2019-03-27T06:19:54.487Z,3.27
2019-03-27T06:22:25.152Z,3.43
2019-03-27T06:24:56.101Z,3.27
2019-03-27T06:27:28.815Z,3.77
2019-03-27T06:29:59.633Z,3.30
2019-03-27T06:32:33.550Z,2.73
2019-03-27T06:35:05.308Z,3.10
2019-03-27T06:37:39.128Z,3.23
2019-03-27T06:40:11.172Z,2.93
2019-03-27T06:42:41.744Z,3.63
2019-03-27T06:45:13.273Z,3.43
2019-03-27T06:47:43.717Z,3.10
2019-03-27T06:50:21.017Z,2.90
2019-03-27T06:52:50.233Z,2.57
2019-03-27T06:55:23.002Z,3.00
2019-03-27T06:57:54.267Z,2.37
2019-03-27T07:00:36.830Z,2.60
2019-03-27T07:03:08.393Z,2.90
2019-03-27T07:05:39.494Z,2.40
2019-03-27T07:08:12.487Z,2.90
2019-03-27T07:10:42.935Z,2.80
2019-03-27T07:13:13.847Z,2.60
2019-03-27T07:15:44.940Z,1.97
2019-03-27T07:18:16.816Z,2.30
2019-03-27T07:20:47.814Z,2.00
2019-03-27T07:23:20.890Z,1.90
2019-03-27T07:25:50.528Z,2.10
2019-03-27T07:28:21.054Z,1.67
2019-03-27T07:30:51.564Z,2.23
2019-03-27T07:33:23.186Z,1.87
2019-03-27T07:35:56.416Z,1.77
2019-03-27T07:38:27.095Z,2.27
2019-03-27T07:40:59.012Z,2.20
2019-03-27T07:43:30.480Z,2.67
2019-03-27T07:46:02.189Z,2.20
2019-03-27T07:48:34.111Z,2.00
2019-03-27T07:51:05.231Z,1.83
2019-03-27T07:53:35.815Z,1.70
2019-03-27T07:56:06.358Z,1.70
2019-03-27T07:58:38.119Z,1.60
2019-03-27T08:01:12.272Z,1.50
2019-03-27T08:03:43.260Z,1.73
2019-03-27T08:06:16.910Z,1.63
2019-03-27T08:08:48.016Z,1.33
2019-03-27T08:11:18.702Z,1.37
2019-03-27T08:13:52.718Z,1.30
2019-03-27T08:16:23.569Z,1.00
2019-03-27T08:19:06.986Z,1.30
2019-03-27T08:21:31.362Z,1.50
2019-03-27T08:24:02.095Z,1.47
2019-03-27T08:26:32.673Z,1.20
2019-03-27T08:29:03.304Z,1.20
2019-03-27T08:31:34.004Z,1.40
2019-03-27T08:34:04.653Z,1.60
2019-03-27T08:36:35.201Z,1.70
2019-03-27T08:39:08.528Z,1.70
2019-03-27T08:41:39.937Z,1.87
2019-03-27T08:44:13.537Z,2.30
2019-03-27T08:46:44.142Z,1.80
2019-03-27T08:49:21.921Z,1.63
2019-03-27T08:51:47.055Z,1.50
2019-03-27T08:54:18.025Z,1.80
2019-03-27T08:56:48.555Z,2.47
2019-03-27T08:59:23.734Z,1.80
2019-03-27T09:01:57.049Z,2.00
2019-03-27T09:04:27.639Z,2.33
2019-03-27T09:07:04.148Z,1.87
2019-03-27T09:09:34.716Z,1.93
2019-03-27T09:12:05.316Z,1.50
2019-03-27T09:14:38.592Z,2.37
2019-03-27T09:17:09.803Z,1.50
2019-03-27T09:19:40.287Z,1.60
2019-03-27T09:22:10.931Z,1.90
2019-03-27T09:24:42.674Z,1.53
2019-03-27T09:27:13.203Z,1.70
2019-03-27T09:29:58.840Z,1.43
2019-03-27T09:32:29.529Z,1.57
2019-03-27T09:35:00.371Z,1.60
2019-03-27T09:37:31.107Z,1.43
2019-03-27T09:40:01.873Z,1.80
2019-03-27T09:42:33.333Z,1.50
2019-03-27T09:45:04.749Z,1.90
2019-03-27T09:47:35.744Z,1.27
2019-03-27T09:50:11.008Z,1.20
2019-03-27T09:52:41.562Z,1.30
2019-03-27T09:55:14.158Z,1.43
2019-03-27T09:57:48.372Z,1.33
2019-03-27T10:00:41.631Z,1.63
2019-03-27T10:03:12.248Z,1.50
2019-03-27T10:05:42.883Z,1.77
2019-03-27T10:08:13.488Z,1.67
2019-03-27T10:10:44.178Z,1.33
2019-03-27T10:13:18.500Z,1.70
2019-03-27T10:15:49.290Z,1.87
2019-03-27T10:18:19.887Z,1.73
2019-03-27T10:20:53.635Z,1.27
2019-03-27T10:23:24.693Z,1.20
2019-03-27T10:25:55.404Z,1.20
2019-03-27T10:28:25.988Z,1.77
2019-03-27T10:30:59.172Z,1.90
2019-03-27T10:33:30.982Z,1.87
2019-03-27T10:36:15.581Z,1.47
2019-03-27T10:38:49.318Z,1.87
2019-03-27T10:41:23.191Z,1.40
2019-03-27T10:43:58.047Z,1.87
2019-03-27T10:46:28.730Z,1.57
2019-03-27T10:48:59.673Z,1.67
2019-03-27T10:51:30.227Z,1.83
2019-03-27T10:54:01.397Z,1.90
2019-03-27T10:56:31.913Z,2.47
2019-03-27T10:59:02.558Z,1.43
2019-03-27T11:01:33.682Z,2.00
2019-03-27T11:04:07.460Z,2.13
2019-03-27T11:06:38.602Z,1.97
2019-03-27T11:09:11.003Z,2.03
2019-03-27T11:11:42.428Z,1.63
2019-03-27T11:14:13.381Z,1.47
2019-03-27T11:16:44.094Z,1.40
2019-03-27T11:19:14.990Z,1.80
2019-03-27T11:21:46.047Z,1.63
2019-03-27T11:24:16.505Z,1.50
2019-03-27T11:26:47.570Z,1.77
2019-03-27T11:29:18.174Z,1.80
2019-03-27T11:31:49.186Z,2.57
2019-03-27T11:34:19.716Z,1.50
2019-03-27T11:36:50.368Z,1.30
2019-03-27T11:39:21.003Z,1.63
2019-03-27T11:41:51.968Z,1.90
2019-03-27T11:44:23.414Z,1.70
2019-03-27T11:46:54.055Z,1.80
2019-03-27T11:49:24.646Z,1.47
2019-03-27T11:51:55.332Z,1.50
2019-03-27T11:54:28.185Z,1.60
2019-03-27T11:56:58.999Z,1.70
2019-03-27T11:59:29.944Z,2.07
2019-03-27T12:02:00.996Z,1.63
2019-03-27T12:04:36.330Z,1.50
2019-03-27T12:07:06.945Z,1.47
2019-03-27T12:09:37.456Z,1.40
2019-03-27T12:12:08.418Z,1.53
2019-03-27T12:14:39.565Z,1.80
2019-03-27T12:17:10.617Z,2.03
2019-03-27T12:19:41.933Z,1.77
2019-03-27T12:22:16.062Z,1.97
2019-03-27T12:24:45.730Z,1.83
2019-03-27T12:27:17.619Z,1.57
2019-03-27T12:29:48.170Z,1.67
2019-03-27T12:32:18.668Z,1.57
2019-03-27T12:34:49.654Z,1.93
2019-03-27T12:37:20.668Z,1.57
2019-03-27T12:39:55.303Z,1.83
2019-03-27T12:42:26.526Z,1.80
2019-03-27T12:45:05.962Z,1.90
2019-03-27T12:47:36.540Z,1.77
2019-03-27T12:50:15.286Z,1.97
2019-03-27T12:52:49.519Z,1.90
2019-03-27T12:55:23.797Z,1.43
2019-03-27T12:57:54.367Z,1.70
2019-03-27T13:00:25.061Z,2.20
2019-03-27T13:02:55.723Z,2.43
2019-03-27T13:05:27.870Z,1.70
2019-03-27T13:07:58.501Z,2.20
2019-03-27T13:10:29.095Z,2.30
2019-03-27T13:12:59.729Z,2.67
2019-03-27T13:15:30.301Z,2.47
2019-03-27T13:18:02.852Z,2.00
2019-03-27T13:20:33.591Z,2.30
2019-03-27T13:23:04.229Z,2.60
2019-03-27T13:25:37.771Z,2.20
2019-03-27T13:28:07.603Z,2.63
2019-03-27T13:30:38.154Z,2.40
2019-03-27T13:33:09.306Z,2.63
2019-03-27T13:35:39.757Z,3.10
2019-03-27T13:38:11.901Z,2.50
2019-03-27T13:40:43.029Z,2.50
2019-03-27T13:43:13.585Z,3.17
2019-03-27T13:45:45.029Z,2.80
2019-03-27T13:48:16.694Z,2.30
2019-03-27T13:50:50.580Z,2.80
2019-03-27T13:53:23.698Z,2.40
2019-03-27T13:55:54.232Z,2.57
2019-03-27T13:58:24.978Z,3.43
2019-03-27T14:00:56.140Z,2.70
2019-03-27T14:03:28.801Z,3.30
2019-03-27T14:05:59.664Z,3.03
2019-03-27T14:08:30.349Z,2.70
2019-03-27T14:11:00.930Z,3.47
2019-03-27T14:13:34.045Z,3.30
2019-03-27T14:16:05.175Z,3.13
2019-03-27T14:18:37.357Z,2.70
2019-03-27T14:21:08.518Z,3.10
2019-03-27T14:23:39.186Z,3.43
2019-03-27T14:26:09.763Z,2.87
2019-03-27T14:28:40.403Z,3.43
2019-03-27T14:31:11.783Z,3.20
2019-03-27T14:33:42.445Z,3.70
2019-03-27T14:36:13.320Z,4.00
2019-03-27T14:38:45.697Z,3.50
2019-03-27T14:41:16.999Z,3.70
2019-03-27T14:43:47.637Z,3.57
2019-03-27T14:46:20.100Z,3.00
2019-03-27T14:48:52.262Z,3.33
2019-03-27T14:51:28.675Z,3.07
2019-03-27T14:53:58.676Z,2.93
2019-03-27T14:56:29.314Z,2.90
2019-03-27T14:59:02.781Z,2.57
2019-03-27T15:01:35.575Z,2.90
2019-03-27T15:04:06.810Z,2.90
2019-03-27T15:06:37.913Z,2.93
2019-03-27T15:09:09.915Z,3.23
2019-03-27T15:11:40.516Z,3.57
2019-03-27T15:14:11.098Z,3.13
2019-03-27T15:16:42.131Z,3.33
2019-03-27T15:19:12.765Z,2.57
2019-03-27T15:21:45.001Z,2.77
2019-03-27T15:24:16.410Z,3.00
2019-03-27T15:26:47.880Z,2.77
2019-03-27T15:29:22.244Z,3.00
2019-03-27T15:31:54.538Z,2.43
2019-03-27T15:34:25.542Z,3.07
2019-03-27T15:36:56.641Z,3.00
2019-03-27T15:39:27.197Z,3.30
2019-03-27T15:41:57.769Z,2.70
2019-03-27T15:44:28.265Z,2.90
2019-03-27T15:47:00.410Z,3.00
2019-03-27T15:49:34.968Z,2.90
2019-03-27T15:52:06.961Z,3.03
2019-03-27T15:54:37.588Z,2.67
2019-03-27T15:57:40.678Z,3.40
2019-03-27T16:00:13.551Z,3.23
2019-03-27T16:02:44.643Z,3.37
2019-03-27T16:05:15.894Z,3.57
2019-03-27T16:07:46.427Z,2.53
2019-03-27T16:10:19.025Z,2.87
2019-03-27T16:12:49.732Z,2.10
2019-03-27T16:15:21.907Z,2.53
2019-03-27T16:17:53.371Z,2.67
2019-03-27T16:20:24.556Z,2.60
2019-03-27T16:22:58.141Z,2.70
2019-03-27T16:25:31.287Z,3.10
2019-03-27T16:28:02.263Z,2.87
2019-03-27T16:30:33.043Z,3.63
2019-03-27T16:33:04.123Z,3.23
2019-03-27T16:35:35.191Z,3.13
2019-03-27T16:38:06.386Z,3.30
2019-03-27T16:40:48.762Z,3.63
2019-03-27T16:43:23.142Z,3.63
2019-03-27T16:45:54.657Z,3.53
2019-03-27T16:48:25.465Z,3.50
2019-03-27T16:50:56.378Z,3.13
2019-03-27T16:53:26.846Z,3.40
2019-03-27T16:55:57.547Z,3.53
2019-03-27T16:58:33.316Z,4.00
2019-03-27T17:01:06.704Z,3.13
2019-03-27T17:03:39.116Z,3.93
2019-03-27T17:06:10.540Z,3.40
2019-03-27T17:08:44.605Z,3.70
2019-03-27T17:11:15.606Z,4.07
2019-03-27T17:13:46.577Z,3.60
2019-03-27T17:16:17.494Z,4.30
2019-03-27T17:18:47.939Z,4.37
2019-03-27T17:21:22.004Z,4.50
2019-03-27T17:23:52.550Z,4.23
2019-03-27T17:26:26.877Z,3.90
2019-03-27T17:29:00.530Z,4.50
2019-03-27T17:31:31.234Z,4.57
2019-03-27T17:34:04.467Z,4.20
2019-03-27T17:36:35.492Z,4.10
2019-03-27T17:39:09.185Z,3.80
2019-03-27T17:41:39.901Z,3.97
2019-03-27T17:44:10.522Z,4.33
2019-03-27T17:46:41.175Z,4.33
2019-03-27T17:49:16.823Z,4.67
2019-03-27T17:51:47.855Z,4.23
2019-03-27T17:54:20.692Z,4.57
2019-03-27T17:56:51.396Z,4.70
2019-03-27T17:59:24.920Z,4.47
2019-03-27T18:01:54.273Z,4.53
2019-03-27T18:04:26.461Z,4.07
2019-03-27T18:06:57.530Z,5.00
2019-03-27T18:09:30.175Z,5.20
2019-03-27T18:12:02.578Z,5.33
2019-03-27T18:14:33.454Z,5.53
2019-03-27T18:17:04.068Z,5.70
2019-03-27T18:19:34.571Z,5.97
2019-03-27T18:22:08.036Z,6.20
2019-03-27T18:24:38.244Z,5.97
2019-03-27T18:27:09.222Z,6.23
2019-03-27T18:29:43.925Z,7.17
2019-03-27T18:32:13.998Z,6.40
2019-03-27T18:34:44.565Z,6.53
2019-03-27T18:37:16.827Z,6.00
2019-03-27T18:39:47.376Z,6.13
2019-03-27T18:42:17.930Z,6.40
2019-03-27T18:44:51.821Z,7.27
2019-03-27T18:47:20.967Z,7.90
2019-03-27T18:49:51.761Z,7.70
2019-03-27T18:52:23.010Z,7.47
2019-03-27T18:54:57.802Z,7.33
2019-03-27T18:57:28.750Z,7.70
2019-03-27T19:00:02.162Z,7.43
2019-03-27T19:02:34.071Z,8.20
2019-03-27T19:05:09.886Z,8.43
2019-03-27T19:07:40.756Z,7.90
2019-03-27T19:10:15.539Z,8.53
2019-03-27T19:12:46.128Z,6.53
2019-03-27T19:15:17.056Z,7.97
2019-03-27T19:17:48.052Z,9.17
2019-03-27T19:20:19.406Z,10.00
2019-03-27T19:22:51.339Z,9.63
2019-03-27T19:25:21.879Z,8.00
2019-03-27T19:27:53.658Z,10.73
2019-03-27T19:30:27.647Z,8.87
2019-03-27T19:33:02.118Z,9.30
2019-03-27T19:35:32.705Z,9.53
2019-03-27T19:38:03.371Z,10.43
2019-03-27T19:40:38.919Z,9.50
2019-03-27T19:43:15.896Z,10.70
2019-03-27T19:45:46.662Z,10.30
2019-03-27T19:48:18.022Z,9.67
2019-03-27T19:50:49.615Z,9.27
2019-03-27T19:53:20.186Z,9.17
2019-03-27T19:55:54.240Z,8.67
2019-03-27T19:58:24.932Z,8.43
2019-03-27T20:00:59.991Z,7.23
2019-03-27T20:03:34.398Z,6.47
2019-03-27T20:06:03.232Z,6.60
2019-03-27T20:08:34.679Z,6.50
2019-03-27T20:11:05.392Z,6.53
2019-03-27T20:13:36.415Z,7.07
2019-03-27T20:16:08.110Z,8.17
2019-03-27T20:18:38.632Z,8.10
2019-03-27T20:21:09.276Z,8.07
2019-03-27T20:23:41.679Z,7.63
2019-03-27T20:26:14.698Z,7.87
2019-03-27T20:28:44.930Z,7.10
2019-03-27T20:31:16.787Z,8.63
2019-03-27T20:33:48.921Z,9.67
2019-03-27T20:36:20.671Z,9.13
2019-03-27T20:38:52.700Z,8.67
2019-03-27T20:41:23.189Z,9.20
2019-03-27T20:43:53.746Z,9.30
2019-03-27T20:46:27.735Z,9.00
2019-03-27T20:49:00.443Z,9.77
2019-03-27T20:51:32.278Z,8.23
2019-03-27T20:54:02.836Z,8.67
2019-03-27T20:56:33.266Z,8.33
2019-03-27T20:59:03.778Z,9.10
2019-03-27T21:01:34.308Z,9.63
2019-03-27T21:04:04.977Z,10.23
2019-03-27T21:06:35.463Z,9.37
2019-03-27T21:09:08.173Z,9.13
2019-03-27T21:11:40.160Z,10.10
2019-03-27T21:14:10.747Z,10.43
2019-03-27T21:16:41.318Z,9.83
2019-03-27T21:19:11.951Z,11.47
2019-03-27T21:21:42.471Z,10.43
2019-03-27T21:24:13.435Z,12.07
2019-03-27T21:26:44.018Z,10.63
2019-03-27T21:29:15.218Z,10.43
2019-03-27T21:31:45.747Z,9.40
2019-03-27T21:34:19.247Z,10.13
2019-03-27T21:36:49.647Z,10.60
2019-03-27T21:39:29.956Z,11.30
2019-03-27T21:41:55.961Z,11.83
2019-03-27T21:44:26.561Z,10.50
2019-03-27T21:47:00.563Z,10.87
2019-03-27T21:49:31.205Z,10.57
2019-03-27T21:52:03.054Z,10.07
2019-03-27T21:54:34.462Z,9.43
2019-03-27T21:57:07.298Z,10.43
2019-03-27T21:59:40.470Z,10.60
2019-03-27T22:02:13.326Z,11.03
2019-03-27T22:04:43.666Z,11.03
2019-03-27T22:07:14.643Z,12.13
2019-03-27T22:09:45.363Z,11.90
2019-03-27T22:12:16.667Z,9.37
2019-03-27T22:14:47.665Z,9.33
2019-03-27T22:17:18.238Z,9.13
2019-03-27T22:22:31.193Z,11.00
2019-03-27T22:25:02.090Z,10.27
2019-03-27T22:27:32.500Z,10.30
2019-03-27T22:30:06.871Z,10.77
2019-03-27T22:32:36.604Z,10.63
2019-03-27T22:35:08.630Z,10.83
2019-03-27T22:37:39.560Z,11.10
2019-03-27T22:40:10.950Z,10.50
2019-03-27T22:42:41.873Z,10.23
2019-03-27T22:45:13.121Z,10.83
2019-03-27T22:47:43.704Z,10.87
2019-03-27T22:50:14.283Z,10.33
2019-03-27T22:52:46.482Z,11.03
2019-03-27T22:55:18.075Z,9.93
2019-03-27T22:57:48.584Z,10.13
2019-03-27T23:00:21.663Z,10.13
2019-03-27T23:02:52.159Z,10.53
2019-03-27T23:05:22.790Z,12.03
2019-03-27T23:07:53.689Z,12.13
2019-03-27T23:10:24.571Z,11.53
2019-03-27T23:12:55.779Z,11.47
2019-03-27T23:15:26.735Z,10.47
2019-03-27T23:17:57.328Z,10.33
2019-03-27T23:20:28.821Z,10.43
2019-03-27T23:22:59.757Z,11.03
2019-03-27T23:25:30.358Z,11.67
2019-03-27T23:28:00.905Z,10.13
2019-03-27T23:30:31.404Z,9.83
2019-03-27T23:33:02.144Z,10.73
2019-03-27T23:35:32.741Z,11.43
2019-03-27T23:38:04.576Z,11.97
2019-03-27T23:40:45.623Z,11.83
2019-03-27T23:43:16.011Z,12.83
2019-03-27T23:45:46.639Z,13.07
2019-03-27T23:48:17.225Z,13.40
2019-03-27T23:50:47.743Z,12.73
2019-03-27T23:53:19.267Z,13.43
2019-03-27T23:55:53.804Z,13.03
2019-03-27T23:58:23.624Z,12.33
